createdAt,value
2018-06-03T00:02:16.088Z,31.57
2018-06-03T00:05:18.660Z,31.30
2018-06-03T00:08:21.210Z,32.67
2018-06-03T00:11:23.735Z,32.33
2018-06-03T00:14:26.281Z,33.63
2018-06-03T00:17:28.845Z,35.07
2018-06-03T00:20:43.103Z,33.03
2018-06-03T00:23:45.582Z,33.83
2018-06-03T00:26:48.119Z,33.70
2018-06-03T00:29:50.608Z,34.70
2018-06-03T00:32:53.108Z,34.47
2018-06-03T00:36:07.320Z,36.63
2018-06-03T00:39:09.904Z,35.37
2018-06-03T00:42:12.417Z,36.53
2018-06-03T00:45:14.926Z,36.87
2018-06-03T00:48:17.417Z,36.60
2018-06-03T00:51:19.914Z,35.70
2018-06-03T00:54:22.407Z,36.67
2018-06-03T00:57:24.928Z,35.80
2018-06-03T01:00:27.504Z,37.17
2018-06-03T01:03:30.011Z,40.23
2018-06-03T01:06:32.567Z,37.33
2018-06-03T01:09:35.043Z,36.73
2018-06-03T01:12:38.335Z,36.70
2018-06-03T01:15:40.842Z,37.93
2018-06-03T01:18:43.452Z,37.97
2018-06-03T01:21:45.967Z,36.87
2018-06-03T01:24:48.466Z,37.40
2018-06-03T01:27:50.951Z,37.60
2018-06-03T01:30:53.458Z,37.53
2018-06-03T01:33:55.974Z,39.27
2018-06-03T01:36:58.493Z,39.83
2018-06-03T01:40:00.966Z,39.00
2018-06-03T01:43:03.486Z,36.73
2018-06-03T01:46:05.990Z,36.57
2018-06-03T01:49:08.480Z,41.07
2018-06-03T01:52:11.003Z,37.30
2018-06-03T01:55:13.524Z,38.23
2018-06-03T01:58:16.012Z,40.07
2018-06-03T02:01:18.494Z,40.63
2018-06-03T02:04:20.986Z,44.43
2018-06-03T02:07:23.479Z,43.90
2018-06-03T02:10:25.983Z,41.20
2018-06-03T02:13:28.475Z,41.77
2018-06-03T02:16:31.053Z,42.73
2018-06-03T02:19:33.572Z,42.17
2018-06-03T02:22:36.090Z,44.00
2018-06-03T02:25:38.628Z,42.10
2018-06-03T02:28:41.132Z,42.27
2018-06-03T02:31:43.653Z,41.30
2018-06-03T02:34:46.164Z,42.87
2018-06-03T02:37:48.667Z,40.07
2018-06-03T02:40:51.202Z,45.33
2018-06-03T02:43:53.703Z,43.43
2018-06-03T02:46:56.203Z,44.60
2018-06-03T02:49:58.719Z,41.00
2018-06-03T02:53:01.240Z,44.03
2018-06-03T02:56:03.730Z,42.03
2018-06-03T02:59:06.252Z,43.07
2018-06-03T03:02:08.731Z,43.80
2018-06-03T03:05:11.244Z,40.20
2018-06-03T03:08:13.751Z,42.40
2018-06-03T03:11:16.219Z,38.77
2018-06-03T03:14:18.703Z,40.13
2018-06-03T03:17:21.209Z,44.17
2018-06-03T03:20:23.689Z,43.33
2018-06-03T03:23:26.179Z,41.17
2018-06-03T03:26:28.658Z,42.97
2018-06-03T03:29:31.183Z,42.00
2018-06-03T03:32:33.666Z,42.63
2018-06-03T03:35:36.165Z,42.03
2018-06-03T03:38:38.690Z,42.97
2018-06-03T03:41:41.185Z,42.83
2018-06-03T03:44:43.663Z,41.97
2018-06-03T03:47:46.886Z,43.47
2018-06-03T03:50:49.358Z,41.93
2018-06-03T03:53:51.854Z,44.10
2018-06-03T03:56:54.341Z,46.03
2018-06-03T03:59:56.836Z,42.30
2018-06-03T04:02:59.351Z,42.27
2018-06-03T04:06:01.818Z,39.63
2018-06-03T04:09:04.320Z,42.17
2018-06-03T04:12:06.815Z,42.73
2018-06-03T04:15:09.333Z,43.27
2018-06-03T04:18:11.947Z,41.90
2018-06-03T04:21:14.438Z,43.17
2018-06-03T04:24:16.917Z,44.27
2018-06-03T04:27:19.411Z,44.33
2018-06-03T04:30:21.898Z,42.03
2018-06-03T04:33:24.378Z,41.43
2018-06-03T04:36:26.954Z,41.63
2018-06-03T04:39:29.461Z,42.93
2018-06-03T04:42:31.933Z,41.47
2018-06-03T04:45:34.454Z,41.90
2018-06-03T04:48:36.943Z,40.97
2018-06-03T04:51:39.435Z,40.93
2018-06-03T04:54:41.963Z,41.73
2018-06-03T04:57:44.463Z,41.00
2018-06-03T05:00:46.937Z,41.37
2018-06-03T05:03:49.443Z,42.63
2018-06-03T05:06:51.952Z,41.30
2018-06-03T05:09:54.487Z,42.13
2018-06-03T05:12:57.039Z,39.57
2018-06-03T05:15:59.554Z,44.10
2018-06-03T05:19:02.079Z,40.43
2018-06-03T05:22:04.587Z,42.67
2018-06-03T05:25:07.135Z,40.67
2018-06-03T05:28:09.663Z,39.13
2018-06-03T05:31:12.141Z,39.77
2018-06-03T05:34:14.629Z,38.60
2018-06-03T05:37:17.110Z,38.60
2018-06-03T05:40:19.628Z,37.57
2018-06-03T05:43:22.105Z,41.67
2018-06-03T05:46:24.675Z,36.50
2018-06-03T05:49:27.180Z,37.13
2018-06-03T05:52:29.673Z,38.03
2018-06-03T05:55:32.246Z,36.60
2018-06-03T05:58:34.748Z,38.03
2018-06-03T06:01:37.286Z,37.40
2018-06-03T06:04:39.825Z,38.57
2018-06-03T06:07:42.414Z,37.57
2018-06-03T06:10:44.964Z,40.33
2018-06-03T06:13:47.482Z,37.93
2018-06-03T06:16:50.017Z,38.80
2018-06-03T06:19:52.543Z,37.37
2018-06-03T06:22:55.171Z,38.17
2018-06-03T06:25:58.490Z,52.73
2018-06-03T06:29:01.006Z,37.80
2018-06-03T06:32:03.516Z,39.03
2018-06-03T06:35:06.058Z,39.60
2018-06-03T06:38:08.532Z,38.33
2018-06-03T06:41:11.696Z,37.70
2018-06-03T06:44:15.141Z,41.87
2018-06-03T06:47:17.648Z,37.37
2018-06-03T06:50:20.631Z,40.83
2018-06-03T06:53:23.150Z,36.97
2018-06-03T06:56:25.738Z,38.13
2018-06-03T06:59:28.250Z,34.87
2018-06-03T07:02:30.786Z,35.43
2018-06-03T07:05:33.346Z,34.60
2018-06-03T07:08:35.840Z,42.37
2018-06-03T07:11:38.362Z,35.43
2018-06-03T07:14:40.917Z,36.23
2018-06-03T07:17:43.559Z,35.50
2018-06-03T07:20:46.425Z,34.73
2018-06-03T07:23:48.931Z,36.37
2018-06-03T07:26:51.510Z,35.63
2018-06-03T07:29:54.125Z,33.43
2018-06-03T07:32:56.661Z,34.73
2018-06-03T07:35:59.180Z,35.90
2018-06-03T07:39:01.690Z,37.77
2018-06-03T07:42:04.224Z,37.70
2018-06-03T07:45:06.739Z,33.67
2018-06-03T07:48:09.276Z,35.03
2018-06-03T07:51:11.806Z,36.63
2018-06-03T07:54:14.358Z,32.33
2018-06-03T07:57:16.950Z,34.07
2018-06-03T08:00:19.592Z,35.10
2018-06-03T08:03:22.169Z,33.20
2018-06-03T08:06:24.704Z,36.50
2018-06-03T08:09:27.230Z,36.13
2018-06-03T08:12:29.776Z,34.70
2018-06-03T08:15:32.430Z,36.37
2018-06-03T08:18:34.956Z,36.57
2018-06-03T08:21:37.477Z,35.87
2018-06-03T08:24:40.039Z,31.93
2018-06-03T08:27:42.574Z,33.73
2018-06-03T08:30:45.224Z,31.40
2018-06-03T08:33:48.462Z,32.90
2018-06-03T08:36:50.988Z,32.17
2018-06-03T08:39:53.542Z,32.83
2018-06-03T08:42:56.101Z,30.83
2018-06-03T08:45:58.710Z,28.27
2018-06-03T08:49:02.022Z,27.37
2018-06-03T08:52:04.564Z,31.10
2018-06-03T08:55:07.073Z,31.40
2018-06-03T08:58:09.625Z,38.07
2018-06-03T09:01:12.225Z,31.97
2018-06-03T09:04:14.774Z,25.57
2018-06-03T09:07:17.294Z,23.03
2018-06-03T09:10:19.849Z,23.53
2018-06-03T09:13:24.158Z,24.33
2018-06-03T09:16:26.777Z,24.10
2018-06-03T09:19:29.307Z,29.00
2018-06-03T09:22:31.909Z,30.10
2018-06-03T09:25:34.446Z,30.40
2018-06-03T09:28:37.075Z,28.47
2018-06-03T09:31:39.644Z,34.17
2018-06-03T09:34:42.253Z,30.97
2018-06-03T09:37:44.801Z,34.27
2018-06-03T09:40:47.421Z,32.93
2018-06-03T09:43:50.037Z,35.93
2018-06-03T09:46:52.665Z,34.03
2018-06-03T09:49:55.181Z,36.07
2018-06-03T09:52:58.033Z,38.13
2018-06-03T09:56:00.589Z,38.53
2018-06-03T09:59:03.239Z,39.73
2018-06-03T10:02:05.803Z,42.47
2018-06-03T10:05:08.389Z,40.33
2018-06-03T10:08:10.964Z,42.17
2018-06-03T10:11:13.528Z,38.43
2018-06-03T10:14:16.175Z,38.20
2018-06-03T10:17:18.866Z,36.70
2018-06-03T10:20:21.444Z,35.57
2018-06-03T10:23:24.016Z,36.70
2018-06-03T10:26:26.609Z,38.27
2018-06-03T10:29:29.190Z,34.50
2018-06-03T10:32:31.754Z,34.70
2018-06-03T10:35:34.344Z,32.37
2018-06-03T10:38:36.991Z,31.13
2018-06-03T10:41:40.700Z,29.70
2018-06-03T10:44:43.329Z,28.53
2018-06-03T10:47:46.006Z,25.10
2018-06-03T10:50:48.563Z,27.60
2018-06-03T10:53:51.102Z,25.73
2018-06-03T10:56:54.800Z,25.63
2018-06-03T10:59:57.447Z,25.10
2018-06-03T11:03:00.040Z,23.23
2018-06-03T11:06:02.634Z,21.83
2018-06-03T11:09:05.208Z,21.60
2018-06-03T11:12:07.747Z,21.07
2018-06-03T11:15:10.270Z,19.60
2018-06-03T11:18:12.908Z,18.13
2018-06-03T11:21:15.466Z,20.47
2018-06-03T11:24:18.623Z,21.53
2018-06-03T11:27:21.226Z,19.77
2018-06-03T11:30:23.788Z,20.63
2018-06-03T11:33:26.366Z,22.70
2018-06-03T11:36:28.925Z,22.93
2018-06-03T11:39:31.530Z,23.30
2018-06-03T11:42:34.104Z,23.07
2018-06-03T11:45:42.181Z,23.63
2018-06-03T11:48:44.826Z,22.30
2018-06-03T11:51:47.851Z,27.97
2018-06-03T11:54:50.910Z,35.80
2018-06-03T11:57:55.558Z,21.97
2018-06-03T12:01:06.367Z,22.63
2018-06-03T12:04:09.176Z,21.23
2018-06-03T12:07:12.329Z,20.30
2018-06-03T12:10:16.353Z,21.83
2018-06-03T12:13:19.286Z,21.07
2018-06-03T12:16:22.212Z,18.93
2018-06-03T12:19:24.994Z,20.17
2018-06-03T12:22:28.675Z,20.10
2018-06-03T12:25:31.537Z,18.03
2018-06-03T12:28:34.391Z,16.73
2018-06-03T12:31:38.493Z,42.13
2018-06-03T12:34:41.629Z,30.07
2018-06-03T12:37:44.276Z,23.20
2018-06-03T12:40:46.819Z,19.37
2018-06-03T12:43:49.412Z,18.97
2018-06-03T12:46:51.957Z,19.03
2018-06-03T12:49:54.569Z,16.87
2018-06-03T12:52:58.282Z,17.47
2018-06-03T12:56:01.967Z,54.17
2018-06-03T12:59:04.682Z,20.60
2018-06-03T13:02:07.258Z,18.37
2018-06-03T13:05:09.856Z,17.70
2018-06-03T13:08:12.443Z,16.10
2018-06-03T13:11:15.045Z,15.03
2018-06-03T13:14:17.592Z,13.40
2018-06-03T13:17:20.198Z,14.07
2018-06-03T13:20:22.741Z,13.40
2018-06-03T13:23:25.400Z,11.90
2018-06-03T13:26:27.921Z,12.27
2018-06-03T13:29:30.563Z,11.97
2018-06-03T13:32:33.371Z,11.47
2018-06-03T13:35:35.968Z,11.47
2018-06-03T13:38:38.542Z,25.53
2018-06-03T13:41:41.094Z,25.60
2018-06-03T13:44:43.676Z,14.63
2018-06-03T13:47:46.223Z,18.53
2018-06-03T13:50:49.537Z,14.87
2018-06-03T13:53:52.121Z,11.13
2018-06-03T13:56:54.674Z,10.80
2018-06-03T13:59:57.271Z,24.97
2018-06-03T14:02:59.840Z,26.13
2018-06-03T14:06:02.399Z,24.70
2018-06-03T14:09:05.025Z,9.60
2018-06-03T14:12:07.581Z,10.90
2018-06-03T14:15:10.177Z,10.13
2018-06-03T14:18:12.783Z,10.20
2018-06-03T14:21:15.500Z,17.03
2018-06-03T14:24:18.088Z,15.57
2018-06-03T14:27:20.703Z,11.03
2018-06-03T14:30:23.371Z,9.83
2018-06-03T14:33:26.016Z,9.53
2018-06-03T14:36:28.656Z,9.23
2018-06-03T14:39:31.239Z,9.00
2018-06-03T14:42:33.774Z,9.13
2018-06-03T14:45:36.362Z,8.77
2018-06-03T14:48:38.946Z,10.03
2018-06-03T14:51:41.621Z,9.13
2018-06-03T14:54:44.246Z,8.07
2018-06-03T14:57:46.765Z,9.33
2018-06-03T15:00:49.417Z,9.57
2018-06-03T15:03:52.036Z,8.97
2018-06-03T15:06:54.560Z,9.73
2018-06-03T15:09:57.148Z,32.00
2018-06-03T15:12:59.718Z,37.87
2018-06-03T15:16:02.367Z,22.10
2018-06-03T15:19:04.992Z,25.57
2018-06-03T15:22:07.584Z,11.40
2018-06-03T15:25:10.213Z,10.17
2018-06-03T15:28:12.807Z,10.17
2018-06-03T15:31:15.529Z,10.27
2018-06-03T15:34:19.383Z,34.50
2018-06-03T15:37:22.093Z,9.37
2018-06-03T15:40:24.736Z,8.73
2018-06-03T15:43:27.406Z,12.00
2018-06-03T15:46:30.092Z,11.00
2018-06-03T15:49:32.655Z,10.20
2018-06-03T15:52:35.204Z,10.77
2018-06-03T15:55:37.852Z,9.87
2018-06-03T15:58:40.439Z,8.93
2018-06-03T16:01:43.137Z,9.37
2018-06-03T16:04:45.772Z,10.10
2018-06-03T16:07:48.443Z,21.97
2018-06-03T16:10:51.060Z,17.97
2018-06-03T16:13:53.677Z,17.77
2018-06-03T16:16:56.374Z,13.50
2018-06-03T16:19:59.168Z,14.43
2018-06-03T16:23:01.966Z,12.30
2018-06-03T16:26:04.665Z,14.07
2018-06-03T16:29:07.345Z,14.50
2018-06-03T16:32:10.023Z,14.87
2018-06-03T16:35:12.695Z,17.83
2018-06-03T16:38:15.859Z,15.60
2018-06-03T16:41:19.094Z,20.27
2018-06-03T16:44:23.234Z,17.77
2018-06-03T16:47:25.815Z,15.30
2018-06-03T16:50:28.979Z,13.87
2018-06-03T16:53:31.692Z,13.37
2018-06-03T16:56:34.467Z,15.70
2018-06-03T16:59:37.209Z,24.60
2018-06-03T17:02:39.806Z,20.70
2018-06-03T17:05:42.615Z,13.67
2018-06-03T17:08:45.226Z,13.53
2018-06-03T17:11:48.123Z,13.37
2018-06-03T17:14:51.687Z,13.70
2018-06-03T17:17:54.461Z,12.97
2018-06-03T17:20:57.163Z,13.30
2018-06-03T17:23:59.836Z,12.80
2018-06-03T17:27:02.635Z,13.33
2018-06-03T17:30:05.387Z,13.20
2018-06-03T17:33:08.157Z,12.77
2018-06-03T17:36:10.852Z,13.00
2018-06-03T17:39:13.717Z,12.10
2018-06-03T17:42:16.344Z,12.40
2018-06-03T17:45:18.993Z,12.57
2018-06-03T17:48:21.753Z,14.90
2018-06-03T17:51:24.544Z,36.07
2018-06-03T17:54:27.181Z,20.70
2018-06-03T17:57:30.487Z,24.90
2018-06-03T18:00:33.339Z,19.90
2018-06-03T18:03:36.095Z,14.80
2018-06-03T18:06:38.713Z,15.57
2018-06-03T18:09:41.365Z,13.10
2018-06-03T18:12:44.974Z,13.00
2018-06-03T18:15:49.459Z,12.53
2018-06-03T18:18:52.732Z,14.77
2018-06-03T18:21:57.596Z,48.60
2018-06-03T18:25:00.641Z,29.60
2018-06-03T18:28:04.448Z,14.20
2018-06-03T18:31:07.107Z,18.00
2018-06-03T18:34:09.852Z,16.20
2018-06-03T18:37:12.570Z,14.03
2018-06-03T18:40:15.153Z,20.90
2018-06-03T18:43:17.926Z,30.70
2018-06-03T18:46:20.672Z,38.57
2018-06-03T18:49:23.444Z,35.17
2018-06-03T18:52:26.329Z,23.47
2018-06-03T18:55:29.020Z,22.03
2018-06-03T18:58:31.696Z,15.00
2018-06-03T19:01:35.304Z,14.73
2018-06-03T19:04:37.971Z,15.27
2018-06-03T19:07:40.595Z,29.53
2018-06-03T19:10:43.452Z,19.37
2018-06-03T19:13:46.655Z,29.20
2018-06-03T19:16:49.292Z,47.10
2018-06-03T19:19:51.946Z,26.20
2018-06-03T19:22:55.835Z,26.30
2018-06-03T19:26:02.529Z,31.40
2018-06-03T19:29:05.975Z,27.67
2018-06-03T19:32:09.746Z,19.00
2018-06-03T19:35:14.353Z,16.73
2018-06-03T19:38:17.521Z,15.40
2018-06-03T19:41:21.414Z,15.13
2018-06-03T19:44:25.879Z,19.20
2018-06-03T19:47:30.426Z,15.17
2018-06-03T19:50:33.379Z,16.70
2018-06-03T19:53:37.417Z,16.53
2018-06-03T19:56:40.078Z,16.23
2018-06-03T19:59:43.202Z,18.03
2018-06-03T20:02:46.255Z,15.80
2018-06-03T20:05:49.138Z,15.33
2018-06-03T20:08:51.806Z,19.10
2018-06-03T20:11:54.459Z,20.07
2018-06-03T20:14:57.105Z,24.83
2018-06-03T20:17:59.803Z,17.57
2018-06-03T20:21:02.384Z,16.37
2018-06-03T20:24:05.035Z,18.10
2018-06-03T20:27:07.711Z,15.63
2018-06-03T20:30:10.505Z,15.90
2018-06-03T20:33:13.134Z,16.17
2018-06-03T20:36:15.781Z,14.63
2018-06-03T20:39:18.368Z,15.23
2018-06-03T20:42:21.026Z,15.37
2018-06-03T20:45:23.635Z,16.27
2018-06-03T20:48:26.246Z,16.37
2018-06-03T20:51:28.829Z,15.80
2018-06-03T20:55:22.502Z,16.17
2018-06-03T20:58:25.983Z,16.03
2018-06-03T21:01:29.351Z,15.37
2018-06-03T21:04:36.010Z,15.87
2018-06-03T21:07:39.539Z,15.80
2018-06-03T21:10:42.974Z,16.23
2018-06-03T21:13:46.442Z,16.20
2018-06-03T21:16:51.910Z,16.97
2018-06-03T21:19:55.565Z,17.33
2018-06-03T21:22:59.946Z,16.53
2018-06-03T21:26:03.331Z,16.90
2018-06-03T21:29:06.674Z,17.93
2018-06-03T21:32:09.951Z,18.00
2018-06-03T21:35:13.311Z,16.43
2018-06-03T21:38:16.695Z,17.70
2018-06-03T21:41:19.959Z,17.37
2018-06-03T21:44:23.290Z,17.10
2018-06-03T21:47:26.625Z,18.13
2018-06-03T21:50:29.991Z,17.53
2018-06-03T21:53:33.342Z,16.93
2018-06-03T21:56:36.671Z,17.90
2018-06-03T21:59:40.007Z,17.90
2018-06-03T22:02:43.506Z,16.33
2018-06-03T22:05:46.857Z,18.63
2018-06-03T22:08:50.174Z,18.33
2018-06-03T22:11:53.461Z,20.20
2018-06-03T22:14:56.736Z,20.27
2018-06-03T22:18:00.110Z,19.83
2018-06-03T22:21:03.362Z,25.00
2018-06-03T22:24:06.623Z,17.93
2018-06-03T22:27:09.807Z,17.63
2018-06-03T22:30:13.011Z,18.10
2018-06-03T22:33:16.303Z,18.17
2018-06-03T22:36:19.492Z,17.90
2018-06-03T22:39:22.829Z,18.67
2018-06-03T22:42:26.090Z,16.77
2018-06-03T22:45:29.353Z,17.30
2018-06-03T22:48:32.622Z,16.33
2018-06-03T22:51:35.877Z,17.53
2018-06-03T22:54:39.177Z,16.97
2018-06-03T22:57:48.902Z,16.37
2018-06-03T23:00:52.359Z,15.87
2018-06-03T23:03:55.644Z,17.23
2018-06-03T23:06:58.958Z,16.67
2018-06-03T23:10:02.291Z,16.13
2018-06-03T23:13:05.585Z,16.97
2018-06-03T23:16:08.824Z,17.00
2018-06-03T23:19:13.329Z,17.30
2018-06-03T23:22:16.559Z,17.50
2018-06-03T23:25:19.854Z,16.70
2018-06-03T23:28:23.625Z,17.87
2018-06-03T23:31:26.895Z,22.53
2018-06-03T23:34:30.112Z,31.30
2018-06-03T23:37:33.289Z,30.97
2018-06-03T23:40:36.541Z,23.27
2018-06-03T23:43:39.719Z,20.00
2018-06-03T23:46:42.978Z,22.73
2018-06-03T23:49:46.135Z,23.00
2018-06-03T23:52:49.376Z,19.90
2018-06-03T23:55:52.593Z,19.73
2018-06-03T23:58:55.757Z,19.23
